Time;durP1;ratioP1;P1;durP2;ratioP2;P2;SDS_P1;SDS_P2;PMS_P1;PMS_P2;Temp;Humidity;BMP_temperature;BMP_pressure;BME280_temperature;BME280_humidity;BME280_pressure;Samples;Min_cycle;Max_cycle;Signal;HPM_P1;HPM_P2
2021/05/17 00:00:44;;;;;;;1.10;0.40;;;;;;;9.76;89.93;97658.53;5049801;28;20482;-67
2021/05/17 00:03:10;;;;;;;0.88;0.40;;;;;;;9.66;90.41;97635.56;5050143;28;20037;-68
2021/05/17 00:05:35;;;;;;;2.42;0.45;;;;;;;9.65;90.83;97641.22;5049599;28;20031;-67
2021/05/17 00:08:03;;;;;;;1.25;0.30;;;;;;;9.76;91.03;97656.66;5050609;28;20496;-67
2021/05/17 00:10:28;;;;;;;2.08;0.35;;;;;;;9.65;90.91;97631.22;5045848;28;20029;-67
2021/05/17 00:12:54;;;;;;;1.08;0.35;;;;;;;9.75;90.82;97646.91;5051681;28;20029;-67
2021/05/17 00:15:21;;;;;;;1.08;0.47;;;;;;;9.74;90.96;97661.44;5050269;28;20051;-67
2021/05/17 00:17:47;;;;;;;1.15;0.47;;;;;;;9.75;90.37;97660.41;5049546;28;20509;-67
2021/05/17 00:20:15;;;;;;;1.55;0.30;;;;;;;9.77;90.43;97666.41;5044862;28;20471;-67
2021/05/17 00:22:40;;;;;;;0.95;0.30;;;;;;;9.84;89.62;97656.34;5050970;28;20102;-67
2021/05/17 00:25:06;;;;;;;0.50;0.40;;;;;;;9.81;89.69;97651.38;5050293;28;20068;-68
2021/05/17 00:27:32;;;;;;;2.08;0.45;;;;;;;9.82;89.11;97658.47;5049679;28;20032;-67
2021/05/17 00:29:57;;;;;;;3.33;0.95;;;;;;;9.78;90.33;97659.94;5050919;28;20029;-67
2021/05/17 00:32:23;;;;;;;5.28;1.20;;;;;;;9.74;90.73;97661.44;5050475;28;20036;-67
2021/05/17 00:34:48;;;;;;;5.22;1.30;;;;;;;9.71;90.46;97656.50;5050536;28;20108;-67
2021/05/17 00:37:15;;;;;;;1.38;0.80;;;;;;;9.70;90.40;97657.56;5049038;28;20021;-68
2021/05/17 00:39:41;;;;;;;1.58;0.90;;;;;;;9.69;91.09;97663.19;5051287;28;20048;-67
2021/05/17 00:42:08;;;;;;;1.92;0.60;;;;;;;9.59;90.82;97658.31;5051278;28;20024;-67
2021/05/17 00:44:39;;;;;;;1.27;0.80;;;;;;;9.58;91.13;97662.88;5049301;28;20025;-67
2021/05/17 00:47:13;;;;;;;0.40;0.30;;;;;;;9.57;90.92;97657.72;5047742;28;20028;-67
2021/05/17 00:49:40;;;;;;;2.33;0.60;;;;;;;9.54;90.50;97658.16;5050498;28;20040;-67
2021/05/17 00:52:07;;;;;;;1.90;0.47;;;;;;;9.53;89.91;97656.50;5051093;28;20075;-67
2021/05/17 00:54:32;;;;;;;0.57;0.35;;;;;;;9.52;90.27;97657.56;5047499;28;20025;-67
2021/05/17 00:56:57;;;;;;;0.90;0.40;;;;;;;9.36;90.47;97648.19;5049217;28;20120;-67
2021/05/17 00:59:23;;;;;;;1.05;0.50;;;;;;;9.44;90.20;97661.38;5050780;28;20116;-67
2021/05/17 01:01:48;;;;;;;0.80;0.50;;;;;;;9.55;89.94;97667.91;5051197;28;20036;-67
2021/05/17 01:04:13;;;;;;;1.25;0.40;;;;;;;9.66;88.46;97664.44;5050967;28;20029;-67
2021/05/17 01:06:43;;;;;;;2.35;0.50;;;;;;;9.75;87.76;97662.28;5050876;28;20056;-67
2021/05/17 01:09:11;;;;;;;2.50;0.40;;;;;;;9.80;87.30;97655.16;5048757;28;20029;-67
2021/05/17 01:11:36;;;;;;;0.50;0.40;;;;;;;9.81;86.88;97661.38;5049939;28;20107;-67
2021/05/17 01:14:04;;;;;;;7.43;0.40;;;;;;;9.77;87.16;97650.22;5053903;28;20071;-67
2021/05/17 01:16:32;;;;;;;2.17;0.45;;;;;;;9.78;87.02;97657.25;5054892;28;20489;-67
2021/05/17 01:18:57;;;;;;;1.83;0.50;;;;;;;9.80;87.46;97659.75;5052142;28;20040;-67
2021/05/17 01:21:26;;;;;;;1.20;0.50;;;;;;;9.68;87.35;97656.97;5052690;28;20032;-68
2021/05/17 01:23:55;;;;;;;2.85;0.47;;;;;;;9.65;87.73;97668.22;5051633;28;20028;-67
2021/05/17 01:26:25;;;;;;;1.58;0.43;;;;;;;9.55;87.66;97659.81;5043130;28;20025;-67
2021/05/17 01:28:52;;;;;;;;;;;;;;;9.49;87.38;97658.00;5034847;28;20538;-67
2021/05/17 01:31:17;;;;;;;2.35;0.50;;;;;;;9.44;88.18;97654.09;5052241;28;19959;-67
2021/05/17 01:33:45;;;;;;;2.55;0.45;;;;;;;9.38;87.80;97656.88;5039931;28;20088;-67
2021/05/17 01:36:13;;;;;;;2.50;0.30;;;;;;;9.41;87.18;97657.25;5041155;28;20067;-67
2021/05/17 01:38:42;;;;;;;3.17;0.50;;;;;;;9.44;87.66;97658.69;5052213;28;20037;-67
2021/05/17 01:41:11;;;;;;;1.00;0.25;;;;;;;9.50;87.38;97657.78;5041916;28;20039;-67
2021/05/17 01:43:45;;;;;;;2.05;0.50;;;;;;;9.53;86.82;97661.91;5051828;28;20028;-67
2021/05/17 01:46:16;;;;;;;1.63;0.47;;;;;;;9.53;86.63;97668.13;5054299;28;20179;-67
2021/05/17 01:48:43;;;;;;;3.33;0.65;;;;;;;9.49;86.36;97650.75;5053986;28;20060;-67
2021/05/17 01:51:14;;;;;;;3.28;0.43;;;;;;;9.60;86.79;97665.38;5052090;28;20089;-67
2021/05/17 01:53:42;;;;;;;1.35;0.30;;;;;;;9.63;86.65;97664.91;5051765;28;20137;-67
2021/05/17 01:56:08;;;;;;;0.93;0.30;;;;;;;9.58;86.59;97662.06;5050219;28;20035;-67
2021/05/17 01:58:36;;;;;;;0.75;0.38;;;;;;;9.52;87.05;97657.56;5053117;28;20028;-67
2021/05/17 02:01:04;;;;;;;2.45;0.47;;;;;;;9.54;87.04;97677.06;5053293;28;20087;-67
2021/05/17 02:03:32;;;;;;;2.85;0.40;;;;;;;9.51;87.01;97666.69;5050062;28;20025;-67
2021/05/17 02:05:59;;;;;;;1.70;0.30;;;;;;;9.61;85.88;97677.81;5054112;28;20382;-67
2021/05/17 02:08:26;;;;;;;3.58;0.57;;;;;;;9.61;86.98;97677.81;5051318;28;20398;-67
2021/05/17 02:10:51;;;;;;;2.75;0.40;;;;;;;9.62;86.58;97676.78;5052730;28;20021;-67
2021/05/17 02:13:19;;;;;;;2.50;0.45;;;;;;;9.62;86.22;97677.59;5053688;28;20025;-67
2021/05/17 02:15:47;;;;;;;2.10;0.50;;;;;;;9.61;86.18;97680.50;5052068;28;20037;-67
2021/05/17 02:18:12;;;;;;;5.57;0.80;;;;;;;9.51;86.44;97656.75;5052447;28;20112;-67
2021/05/17 02:20:41;;;;;;;3.35;1.10;;;;;;;9.62;87.12;97672.19;5049189;28;20440;-67
2021/05/17 02:23:11;;;;;;;5.47;1.02;;;;;;;9.55;87.09;97673.31;5040824;28;20080;-67
2021/05/17 02:25:41;;;;;;;4.80;1.00;;;;;;;9.53;87.18;97675.41;5053606;28;20054;-67
2021/05/17 02:28:08;;;;;;;3.15;1.00;;;;;;;9.61;87.05;97680.50;5053011;28;20102;-67
2021/05/17 02:30:33;;;;;;;1.75;0.50;;;;;;;9.56;87.06;97666.84;5050527;28;20144;-67
2021/05/17 02:32:59;;;;;;;1.90;0.60;;;;;;;9.54;86.77;97650.88;5052689;28;20108;-67
2021/05/17 02:35:24;;;;;;;1.63;0.50;;;;;;;9.61;86.64;97670.53;5051146;28;20082;-67
2021/05/17 02:37:50;;;;;;;2.78;0.50;;;;;;;9.64;86.50;97663.84;5043956;28;20493;-67
2021/05/17 02:40:17;;;;;;;3.72;0.60;;;;;;;9.68;86.45;97670.47;5050923;28;20021;-67
2021/05/17 02:42:46;;;;;;;3.00;0.60;;;;;;;9.72;85.75;97666.28;5038158;28;20037;-67
2021/05/17 02:45:14;;;;;;;0.60;0.40;;;;;;;9.74;86.12;97674.94;5051732;28;20051;-67
2021/05/17 02:47:40;;;;;;;1.10;0.70;;;;;;;9.77;86.10;97674.53;5051253;28;20044;-67
2021/05/17 02:50:11;;;;;;;3.72;0.60;;;;;;;9.78;86.26;97667.25;5049446;28;20039;-67
2021/05/17 02:52:37;;;;;;;2.65;0.50;;;;;;;9.86;85.35;97666.94;5052444;28;20033;-67
2021/05/17 02:55:12;;;;;;;4.82;0.30;;;;;;;9.86;85.19;97677.72;5052165;28;20028;-67
2021/05/17 02:57:40;;;;;;;2.90;0.73;;;;;;;9.85;85.29;97689.56;5032798;28;20544;-67
2021/05/17 03:00:13;;;;;;;1.90;0.40;;;;;;;9.84;86.26;97688.75;5093102;22;20390;-68
2021/05/17 03:02:46;;;;;;;1.02;0.60;;;;;;;9.79;85.68;97694.00;5071825;28;20033;-68
2021/05/17 03:05:12;;;;;;;4.45;0.50;;;;;;;9.82;85.90;97693.56;5054280;28;20021;-68
2021/05/17 03:07:40;;;;;;;2.47;0.40;;;;;;;9.80;85.88;97698.38;5071201;28;20025;-68
2021/05/17 03:10:06;;;;;;;1.08;0.30;;;;;;;9.82;86.65;97698.13;5069915;28;20024;-68
2021/05/17 03:12:36;;;;;;;1.15;0.35;;;;;;;9.68;86.36;97678.56;5051306;28;20068;-68
2021/05/17 03:15:02;;;;;;;4.18;0.65;;;;;;;9.75;85.73;97692.81;5041013;28;20048;-68
2021/05/17 03:17:28;;;;;;;3.00;0.38;;;;;;;9.77;85.32;97681.78;5051769;28;20453;-68
2021/05/17 03:19:53;;;;;;;1.10;0.52;;;;;;;9.86;85.18;97700.16;5034461;28;20055;-67
2021/05/17 03:22:20;;;;;;;1.30;0.47;;;;;;;9.71;86.32;97691.59;5040076;28;20368;-68
2021/05/17 03:24:46;;;;;;;1.35;0.43;;;;;;;9.72;85.05;97695.97;5041479;28;20478;-68
2021/05/17 03:27:23;;;;;;;1.50;0.30;;;;;;;9.82;84.63;97698.13;5048757;28;20047;-68
2021/05/17 03:29:49;;;;;;;1.33;0.40;;;;;;;9.79;84.71;97698.59;5032529;28;20021;-68
2021/05/17 03:32:15;;;;;;;2.67;0.60;;;;;;;9.83;83.96;97702.50;5042360;28;20037;-68
2021/05/17 03:34:41;;;;;;;2.05;0.40;;;;;;;9.80;83.56;97706.47;5033520;28;20040;-68
2021/05/17 03:37:07;;;;;;;1.58;0.30;;;;;;;9.80;83.56;97703.78;5033594;28;20026;-68
2021/05/17 03:39:32;;;;;;;0.70;0.32;;;;;;;9.78;83.96;97705.06;5042382;28;20029;-68
2021/05/17 03:41:57;;;;;;;1.30;0.22;;;;;;;9.83;82.36;97706.03;5032164;28;20030;-68
2021/05/17 03:44:23;;;;;;;0.85;0.28;;;;;;;9.90;81.83;97705.09;5048993;28;20032;-68
2021/05/17 03:46:48;;;;;;;0.68;0.30;;;;;;;9.89;82.95;97707.00;5034204;28;20033;-67
2021/05/17 03:49:14;;;;;;;2.53;0.28;;;;;;;9.92;82.02;97703.00;5034288;28;20025;-67
2021/05/17 03:51:39;;;;;;;3.72;0.40;;;;;;;9.82;82.69;97695.44;5048209;28;20048;-67
2021/05/17 03:54:05;;;;;;;3.63;0.35;;;;;;;9.88;82.72;97724.25;5051834;28;20489;-67
2021/05/17 03:56:30;;;;;;;2.67;0.28;;;;;;;9.95;81.51;97716.88;5072044;28;20121;-67
2021/05/17 03:58:55;;;;;;;1.45;0.30;;;;;;;9.84;81.52;97706.84;5065789;28;20017;-68
2021/05/17 04:01:21;;;;;;;0.68;0.30;;;;;;;9.96;81.69;97723.97;5031522;28;20029;-66
2021/05/17 04:03:46;;;;;;;1.50;0.20;;;;;;;9.94;82.13;97720.66;5048471;28;20032;-75
2021/05/17 04:06:24;;;;;;;1.35;0.30;;;;;;;9.93;82.81;97724.41;5040137;28;20053;-73
2021/05/17 04:14:17;;;;;;;1.55;0.22;;;;;;;10.04;81.55;97722.81;5053301;28;20102;-74
2021/05/17 04:16:43;;;;;;;0.70;0.32;;;;;;;9.98;80.88;97723.72;5034774;28;20538;-75
2021/05/17 04:19:08;;;;;;;2.65;0.30;;;;;;;10.00;81.72;97727.84;5034428;28;20048;-75
2021/05/17 04:21:33;;;;;;;3.40;0.40;;;;;;;10.08;81.02;97745.63;5052504;28;20098;-76
2021/05/17 04:23:58;;;;;;;1.13;0.30;;;;;;;9.91;81.78;97729.22;5031982;28;20025;-75
2021/05/17 04:26:24;;;;;;;1.10;0.20;;;;;;;9.85;81.51;97728.25;5051893;28;20078;-77
2021/05/17 04:28:49;;;;;;;0.90;0.10;;;;;;;10.00;81.16;97740.53;5051171;28;20061;-73
2021/05/17 04:31:14;;;;;;;1.55;0.20;;;;;;;10.06;81.14;97750.44;5035297;28;20033;-76
2021/05/17 04:33:40;;;;;;;1.13;0.40;;;;;;;10.05;80.97;97746.09;5019944;28;20505;-76
2021/05/17 04:36:05;;;;;;;2.15;0.20;;;;;;;10.08;81.51;97740.22;5038864;28;20044;-77
2021/05/17 04:38:30;;;;;;;1.75;0.10;;;;;;;10.20;80.77;97753.81;5035283;28;20025;-77
2021/05/17 04:40:56;;;;;;;0.65;0.30;;;;;;;10.08;81.01;97751.84;5035260;28;20044;-74
2021/05/17 04:43:21;;;;;;;1.02;0.20;;;;;;;10.15;80.95;97750.97;5030664;28;20392;-76
2021/05/17 04:45:46;;;;;;;3.00;0.30;;;;;;;10.04;81.65;97745.28;5034809;28;20029;-75
2021/05/17 04:48:12;;;;;;;1.00;0.30;;;;;;;9.96;81.86;97737.47;5037084;28;20028;-77
2021/05/17 04:50:37;;;;;;;1.90;0.20;;;;;;;10.00;81.91;97740.53;5037907;28;20087;-77
2021/05/17 04:53:02;;;;;;;0.55;0.20;;;;;;;9.90;82.33;97740.22;5037766;28;20044;-77
2021/05/17 04:55:28;;;;;;;0.82;0.10;;;;;;;9.92;81.80;97748.94;5037718;28;20537;-78
2021/05/17 04:57:53;;;;;;;1.95;0.25;;;;;;;9.85;82.63;97743.59;5031713;28;20075;-76
2021/05/17 05:00:19;;;;;;;1.35;0.32;;;;;;;9.96;82.66;97750.97;5055017;28;20500;-78
2021/05/17 05:02:44;;;;;;;2.03;0.30;;;;;;;10.02;83.06;97760.88;5037875;28;20120;-76
2021/05/17 05:05:10;;;;;;;1.13;0.35;;;;;;;10.08;81.56;97759.13;5037718;28;20025;-76
2021/05/17 05:07:36;;;;;;;0.98;0.20;;;;;;;10.24;81.74;97772.06;5055509;28;20648;-76
2021/05/17 05:10:03;;;;;;;0.28;0.25;;;;;;;10.19;81.82;97776.47;5055836;28;20033;-78
2021/05/17 05:12:29;;;;;;;1.77;0.20;;;;;;;10.17;81.32;97774.03;5038768;28;20547;-78
2021/05/17 05:14:54;;;;;;;0.75;0.20;;;;;;;10.35;80.95;97775.06;5021032;28;20032;-81
2021/05/17 05:17:19;;;;;;;0.75;0.10;;;;;;;10.42;80.37;97776.63;5042722;28;20030;-78
2021/05/17 05:19:45;;;;;;;0.90;0.30;;;;;;;10.37;80.44;97759.44;5018486;28;20116;-77
2021/05/17 05:22:10;;;;;;;1.85;0.30;;;;;;;10.23;81.47;97770.41;5021760;28;20131;-77
2021/05/17 05:24:35;;;;;;;1.33;0.45;;;;;;;10.43;79.50;97762.09;5034262;28;20547;-69
2021/05/17 05:29:39;;;;;;;0.60;0.20;;;;;;;10.79;78.41;97765.72;5052106;28;20024;-69
2021/05/17 05:32:25;;;;;;;2.63;0.40;;;;;;;10.98;77.96;97785.47;5053647;28;20441;-68
2021/05/17 05:34:50;;;;;;;2.17;0.20;;;;;;;10.74;76.97;97784.53;5046558;28;20089;-69
2021/05/17 05:37:16;;;;;;;0.85;0.22;;;;;;;10.78;77.04;97768.69;5051541;28;20440;-68
2021/05/17 05:39:42;;;;;;;0.25;0.20;;;;;;;10.93;76.93;97772.63;5027254;28;20037;-68
2021/05/17 05:42:08;;;;;;;4.40;0.30;;;;;;;11.27;75.51;97780.25;5042513;28;20029;-68
2021/05/17 05:44:41;;;;;;;0.20;0.10;;;;;;;11.50;74.19;97792.97;5042978;28;20398;-68
2021/05/17 05:47:07;;;;;;;2.55;0.20;;;;;;;11.61;73.63;97782.16;5039325;28;20021;-68
2021/05/17 05:49:33;;;;;;;0.63;0.10;;;;;;;12.26;71.73;97793.91;5042694;28;20071;-69
2021/05/17 05:51:58;;;;;;;0.45;0.17;;;;;;;12.09;72.08;97785.69;5041740;28;20021;-68
2021/05/17 05:54:23;;;;;;;0.52;0.20;;;;;;;12.09;72.40;97795.72;5040092;28;20145;-68
2021/05/17 05:56:49;;;;;;;1.95;0.40;;;;;;;11.91;72.12;97783.94;5040786;28;20025;-69
2021/05/17 05:59:14;;;;;;;0.30;0.10;;;;;;;11.72;73.47;97799.47;5042776;28;20025;-69
2021/05/17 06:01:39;;;;;;;1.10;0.20;;;;;;;11.33;75.36;97788.25;5023389;28;20540;-71
2021/05/17 06:04:05;;;;;;;1.42;0.45;;;;;;;11.35;75.60;97788.84;5031830;28;20033;-71
2021/05/17 06:06:30;;;;;;;0.68;0.13;;;;;;;11.45;75.70;97806.38;5044131;28;20515;-71
2021/05/17 06:08:55;;;;;;;0.95;0.25;;;;;;;11.00;76.60;97794.16;5062045;28;20021;-68
2021/05/17 06:11:22;;;;;;;0.25;0.20;;;;;;;11.17;76.01;97811.41;5056614;28;20029;-70
2021/05/17 06:13:49;;;;;;;2.75;0.40;;;;;;;11.18;75.73;97807.63;5048161;28;20029;-69
2021/05/17 06:16:14;;;;;;;5.72;0.70;;;;;;;10.92;75.48;97808.00;5050027;28;20025;-70
2021/05/17 06:18:40;;;;;;;2.75;0.20;;;;;;;11.08;75.54;97820.06;5052456;28;20053;-72
2021/05/17 06:21:06;;;;;;;1.75;0.40;;;;;;;10.96;75.10;97828.16;5053540;28;20033;-73
2021/05/17 06:23:32;;;;;;;2.88;0.20;;;;;;;11.06;74.34;97823.03;5035221;28;20037;-75
2021/05/17 06:25:58;;;;;;;2.38;0.10;;;;;;;10.92;72.96;97824.25;5023554;28;20037;-78
2021/05/17 06:28:25;;;;;;;1.35;0.25;;;;;;;10.82;72.80;97822.13;5055985;28;20029;-75
2021/05/17 06:30:54;;;;;;;1.00;0.47;;;;;;;11.02;72.32;97840.78;5056670;28;20029;-73
2021/05/17 06:33:21;;;;;;;3.88;0.30;;;;;;;10.99;73.49;97835.00;5049088;28;20033;-70
2021/05/17 06:35:50;;;;;;;0.93;0.20;;;;;;;11.07;72.24;97848.22;5035865;28;20029;-70
2021/05/17 06:38:15;;;;;;;4.30;0.20;;;;;;;11.07;72.71;97824.66;5052683;28;20478;-70
2021/05/17 06:40:41;;;;;;;0.38;0.17;;;;;;;11.13;70.92;97837.28;5039284;28;20024;-77
2021/05/17 06:43:07;;;;;;;1.75;0.10;;;;;;;11.17;71.62;97838.47;5038768;28;20632;-77
2021/05/17 06:45:34;;;;;;;2.70;0.10;;;;;;;11.12;71.95;97851.88;5051721;28;20021;-76
2021/05/17 06:47:59;;;;;;;2.28;0.20;;;;;;;10.85;72.60;97850.59;5035941;28;20074;-68
2021/05/17 06:50:26;;;;;;;1.00;0.10;;;;;;;10.99;72.87;97876.41;5054622;28;20021;-78
2021/05/17 06:52:52;;;;;;;2.05;0.17;;;;;;;10.95;72.33;97853.56;5035651;28;20029;-76
2021/05/17 06:55:22;;;;;;;0.10;0.00;;;;;;;11.25;72.42;97864.38;5036966;28;20104;-78
2021/05/17 07:00:31;;;;;;;0.55;0.10;;;;;;;11.49;71.18;97875.28;5037505;28;20116;-77
2021/05/17 07:02:58;;;;;;;1.98;0.20;;;;;;;11.78;70.59;97879.81;5034051;28;20021;-66
2021/05/17 07:05:24;;;;;;;3.65;0.25;;;;;;;12.53;68.68;97883.72;5042280;28;20025;-70
2021/05/17 07:11:34;;;;;;;3.42;0.30;;;;;;;12.91;67.69;97885.03;5044666;28;20104;-74
2021/05/17 07:13:28;;;;;;;0.15;0.10;;;;;;;13.74;65.08;97878.19;5053030;28;20448;-69
2021/05/17 07:15:53;;;;;;;2.20;0.20;;;;;;;14.05;64.85;97877.88;5051436;28;20033;-69
2021/05/17 07:18:19;;;;;;;0.82;0.25;;;;;;;13.82;64.67;97876.94;5050020;28;20021;-70
2021/05/17 07:26:02;;;;;;;1.42;0.20;;;;;;;12.45;68.65;97875.97;5052629;28;20028;-71
2021/05/17 07:28:27;;;;;;;1.70;0.50;;;;;;;12.43;69.04;97895.19;5051696;28;20513;-76
2021/05/17 07:30:53;;;;;;;4.03;0.25;;;;;;;12.59;67.83;97895.50;5036239;28;20025;-73
2021/05/17 07:33:18;;;;;;;1.25;0.30;;;;;;;12.06;68.43;97890.00;5014419;28;20030;-71
2021/05/17 07:35:43;;;;;;;1.33;0.13;;;;;;;12.31;67.81;97899.78;5036830;28;20033;-71
2021/05/17 07:38:09;;;;;;;6.18;0.55;;;;;;;12.48;67.93;97892.59;5051950;28;20100;-70
2021/05/17 07:40:35;;;;;;;7.10;0.50;;;;;;;12.78;66.54;97874.47;5033831;28;20111;-69
2021/05/17 07:43:00;;;;;;;2.85;0.20;;;;;;;13.67;64.98;97901.16;5041924;28;20056;-70
2021/05/17 07:45:26;;;;;;;3.10;0.38;;;;;;;13.81;62.68;97887.00;5038407;28;20423;-72
2021/05/17 07:47:53;;;;;;;2.20;0.40;;;;;;;13.68;62.70;97879.19;5056324;28;20024;-67
2021/05/17 07:50:19;;;;;;;2.17;0.20;;;;;;;14.02;63.51;97903.66;5066521;28;20096;-72
2021/05/17 07:52:46;;;;;;;2.13;0.28;;;;;;;14.16;61.87;97879.66;5033623;28;20334;-72
2021/05/17 07:55:12;;;;;;;4.22;0.22;;;;;;;14.76;60.34;97888.97;5043271;28;20037;-72
2021/05/17 07:57:38;;;;;;;1.48;0.50;;;;;;;13.86;59.89;97891.72;5024815;28;20036;-70
2021/05/17 08:00:06;;;;;;;2.47;0.60;;;;;;;13.71;61.77;97889.56;5051670;28;20017;-71
2021/05/17 08:02:31;;;;;;;2.88;0.50;;;;;;;13.27;63.13;97910.22;5051525;28;20429;-72
2021/05/17 08:04:56;;;;;;;2.15;0.20;;;;;;;13.01;63.57;97900.72;5033624;28;20025;-71
2021/05/17 08:07:22;;;;;;;4.40;0.40;;;;;;;12.48;64.21;97908.03;5024851;28;20029;-71
2021/05/17 08:09:48;;;;;;;1.35;0.20;;;;;;;12.32;65.32;97897.91;5049446;28;20553;-70
2021/05/17 08:12:14;;;;;;;1.70;0.30;;;;;;;11.82;66.39;97904.56;5042246;28;20415;-70
2021/05/17 08:14:39;;;;;;;7.50;0.60;;;;;;;12.13;66.00;97902.59;5033586;28;20028;-71
2021/05/17 08:17:05;;;;;;;3.38;0.40;;;;;;;12.11;65.84;97921.03;5051328;28;20029;-69
2021/05/17 08:19:33;;;;;;;3.25;0.38;;;;;;;12.33;65.98;97910.41;5049000;28;20028;-70
2021/05/17 08:21:59;;;;;;;0.65;0.17;;;;;;;12.27;65.61;97909.47;5035914;28;20116;-70
2021/05/17 08:24:25;;;;;;;2.47;0.43;;;;;;;12.59;66.07;97918.03;5035785;28;20052;-75
2021/05/17 08:26:51;;;;;;;0.57;0.13;;;;;;;12.20;64.46;97900.63;5018350;28;20033;-75
2021/05/17 08:29:16;;;;;;;1.70;0.32;;;;;;;12.73;63.80;97915.88;5035985;28;20026;-72
2021/05/17 08:31:43;;;;;;;3.50;0.68;;;;;;;12.79;62.75;97909.53;5037897;28;20037;-73
2021/05/17 08:34:09;;;;;;;0.63;0.13;;;;;;;12.71;63.67;97932.44;5036207;28;20442;-65
2021/05/17 08:36:35;;;;;;;1.10;0.20;;;;;;;13.53;62.37;97928.66;5046840;28;20108;-74
2021/05/17 08:39:00;;;;;;;4.78;0.43;;;;;;;14.52;60.32;97910.94;5036906;28;20523;-72
2021/05/17 08:41:27;;;;;;;4.68;0.22;;;;;;;15.01;57.91;97904.78;5037289;28;20112;-72
2021/05/17 08:43:52;;;;;;;1.20;0.40;;;;;;;14.12;59.89;97911.13;5048895;28;20029;-72
2021/05/17 08:46:18;;;;;;;3.38;0.52;;;;;;;15.45;56.73;97900.09;5043105;28;20032;-71
2021/05/17 08:48:49;;;;;;;2.92;0.40;;;;;;;19.56;48.18;97881.56;5055730;28;20120;-71
2021/05/17 08:51:16;;;;;;;2.88;0.50;;;;;;;21.29;44.31;97860.94;5053164;28;20021;-73
2021/05/17 08:53:44;;;;;;;5.82;0.50;;;;;;;20.13;46.44;97901.22;5055057;28;20668;-75
2021/05/17 08:56:09;;;;;;;2.25;0.47;;;;;;;20.39;44.13;97890.81;5029180;28;20091;-76
2021/05/17 08:58:35;;;;;;;1.85;0.38;;;;;;;19.26;46.76;97888.88;5036057;28;20020;-75
2021/05/17 09:01:02;;;;;;;2.40;0.60;;;;;;;19.18;48.13;97889.47;5055722;22;20085;-73
2021/05/17 09:03:27;;;;;;;3.58;0.50;;;;;;;17.57;51.85;97891.03;5081100;28;20146;-73
2021/05/17 09:05:52;;;;;;;1.27;0.28;;;;;;;17.14;52.68;97893.13;5083589;28;21948;-74
2021/05/17 09:08:23;;;;;;;5.47;0.70;;;;;;;16.91;52.08;97890.84;5092552;28;20513;-74
2021/05/17 09:10:49;;;;;;;5.72;0.40;;;;;;;16.62;52.99;97896.69;5074655;28;20112;-73
2021/05/17 09:13:18;;;;;;;3.17;0.40;;;;;;;15.56;54.48;97907.31;5085667;28;20115;-73
2021/05/17 09:15:48;;;;;;;4.10;0.70;;;;;;;14.13;58.62;97902.75;5077346;28;20078;-70
2021/05/17 09:18:17;;;;;;;4.85;0.40;;;;;;;14.72;57.72;97904.16;5080483;28;20062;-70
2021/05/17 09:20:45;;;;;;;1.75;0.47;;;;;;;14.30;58.58;97908.16;5073345;28;20413;-71
2021/05/17 09:23:25;;;;;;;4.05;0.47;;;;;;;13.78;59.15;97911.97;5085328;28;20028;-71
2021/05/17 09:26:10;;;;;;;4.07;0.82;;;;;;;14.40;58.86;97913.75;5092896;28;20107;-75
2021/05/17 09:28:40;;;;;;;2.70;0.55;;;;;;;14.01;60.04;97924.56;5094973;28;20024;-76
2021/05/17 09:31:06;;;;;;;;;;;;;;;14.22;59.10;97919.47;5078350;28;20025;-75
2021/05/17 09:33:39;;;;;;;2.83;0.35;;;;;;;14.63;57.98;97920.91;5056522;28;19912;-76
2021/05/17 09:36:06;;;;;;;2.00;0.30;;;;;;;15.03;56.87;97903.44;5057004;28;20655;-76
2021/05/17 09:38:32;;;;;;;2.13;0.38;;;;;;;15.40;56.48;97908.22;5074780;28;20028;-77
2021/05/17 09:41:07;;;;;;;4.10;0.57;;;;;;;15.93;56.27;97912.03;5077815;28;20062;-78
2021/05/17 09:43:33;;;;;;;2.17;0.52;;;;;;;15.91;55.18;97894.28;5086341;28;20070;-76
2021/05/17 09:46:00;;;;;;;2.22;0.45;;;;;;;16.73;53.23;97906.56;5081367;28;20025;-76
2021/05/17 09:48:45;;;;;;;2.47;0.40;;;;;;;18.27;50.60;97905.06;5056688;28;20584;-74
2021/05/17 09:51:12;;;;;;;1.75;0.43;;;;;;;17.89;49.51;97898.22;5075107;28;20027;-73
2021/05/17 09:53:46;;;;;;;1.13;0.30;;;;;;;17.79;50.58;97899.03;5094793;28;20401;-73
2021/05/17 09:56:21;;;;;;;2.22;0.20;;;;;;;16.62;54.10;97904.88;5077907;28;20103;-72
2021/05/17 09:58:57;;;;;;;2.85;0.45;;;;;;;17.66;51.48;97903.09;5057026;28;20024;-73
2021/05/17 10:01:22;;;;;;;1.92;0.30;;;;;;;18.16;49.98;97903.44;5073899;28;20020;-73
2021/05/17 10:03:49;;;;;;;0.82;0.30;;;;;;;17.67;51.67;97907.47;5074504;28;20501;-73
2021/05/17 10:06:22;;;;;;;2.22;0.45;;;;;;;16.74;51.03;97891.84;5080999;28;20029;-73
2021/05/17 10:08:48;;;;;;;4.13;0.30;;;;;;;17.08;50.80;97896.91;5074353;28;20170;-74
2021/05/17 10:11:14;;;;;;;1.05;0.28;;;;;;;18.01;49.20;97885.09;5062342;28;20119;-73
2021/05/17 10:13:39;;;;;;;1.48;0.20;;;;;;;18.94;48.34;97896.69;5076164;28;20033;-72
2021/05/17 10:16:08;;;;;;;0.70;0.40;;;;;;;18.78;47.40;97879.50;5080500;28;20036;-69
2021/05/17 10:18:36;;;;;;;1.80;0.30;;;;;;;19.54;47.44;97896.69;5070730;28;20036;-69
2021/05/17 10:21:03;;;;;;;2.13;0.40;;;;;;;18.17;47.45;97886.72;5071048;28;20029;-68
2021/05/17 10:23:29;;;;;;;2.83;0.20;;;;;;;16.98;50.16;97907.84;5070748;28;20021;-69
2021/05/17 10:26:06;;;;;;;0.57;0.25;;;;;;;17.08;49.69;97916.03;5070601;28;20115;-69
2021/05/17 10:28:32;;;;;;;4.18;0.20;;;;;;;18.15;48.36;97888.88;5070836;28;20424;-68
2021/05/17 10:31:11;;;;;;;4.40;0.30;;;;;;;18.84;47.03;97897.56;5070522;28;20092;-69
2021/05/17 10:33:37;;;;;;;0.50;0.25;;;;;;;20.71;43.33;97882.00;5070800;28;20378;-69
2021/05/17 10:36:05;;;;;;;1.88;0.30;;;;;;;21.15;42.27;97889.16;5075323;28;20034;-69
2021/05/17 10:38:47;;;;;;;0.57;0.20;;;;;;;18.34;46.16;97874.66;5072733;28;20036;-69
2021/05/17 10:44:29;;;;;;;0.68;0.10;;;;;;;16.45;52.87;97907.75;5071100;28;20040;-69
2021/05/17 10:46:55;;;;;;;1.27;0.20;;;;;;;15.29;59.36;97903.75;5069160;28;20063;-69
2021/05/17 10:49:37;;;;;;;1.27;0.20;;;;;;;15.02;64.22;97926.31;5071796;28;20485;-69
2021/05/17 10:52:10;;;;;;;2.60;0.40;;;;;;;14.31;67.02;97947.09;5070341;28;20111;-69
2021/05/17 10:54:46;;;;;;;3.47;0.20;;;;;;;13.33;67.31;97944.56;5072750;28;20027;-68
2021/05/17 10:57:41;;;;;;;1.55;0.03;;;;;;;12.81;69.10;97960.84;5071306;28;20033;-69
2021/05/17 11:00:26;;;;;;;3.75;0.25;;;;;;;12.60;71.52;97963.13;5070305;28;20047;-68
2021/05/17 11:03:09;;;;;;;0.15;0.10;;;;;;;11.74;75.10;97972.66;5070216;28;20024;-68
2021/05/17 11:05:35;;;;;;;1.38;0.10;;;;;;;11.03;76.83;97961.53;5070698;28;20036;-68
2021/05/17 11:08:05;;;;;;;0.60;0.20;;;;;;;10.57;80.60;97952.06;5078754;28;20035;-68
2021/05/17 11:10:41;;;;;;;0.90;0.20;;;;;;;10.33;80.98;97937.53;5075898;28;20036;-68
2021/05/17 11:13:10;;;;;;;1.20;0.47;;;;;;;10.83;81.64;97974.47;5070590;28;20230;-68
2021/05/17 11:16:05;;;;;;;0.35;0.05;;;;;;;11.14;82.18;97978.88;5076275;28;20052;-68
2021/05/17 11:18:43;;;;;;;2.08;0.22;;;;;;;11.24;81.33;97965.63;5069660;28;20063;-69
2021/05/17 11:21:25;;;;;;;0.35;0.15;;;;;;;11.40;80.84;97983.97;5069943;28;20035;-68
2021/05/17 11:23:55;;;;;;;0.98;0.30;;;;;;;11.38;80.07;97975.22;5069533;28;20042;-69
2021/05/17 11:26:23;;;;;;;;;;;;;;;11.34;80.26;97984.88;5069719;28;20109;-68
2021/05/17 11:28:49;;;;;;;1.33;0.60;;;;;;;11.41;79.75;97984.78;5054519;28;19913;-69
2021/05/17 11:34:02;;;;;;;1.02;0.40;;;;;;;11.49;79.05;97975.50;5079718;28;20127;-68
2021/05/17 11:36:29;;;;;;;0.75;0.20;;;;;;;11.54;78.31;97973.75;5072687;28;20033;-68
2021/05/17 11:39:16;;;;;;;1.13;0.30;;;;;;;11.87;75.73;97966.22;5070585;28;20032;-68
2021/05/17 11:41:44;;;;;;;0.70;0.20;;;;;;;11.94;76.13;97962.34;5088960;28;20389;-68
2021/05/17 11:44:35;;;;;;;2.33;0.20;;;;;;;12.61;76.06;97959.34;5078917;28;20059;-69
2021/05/17 11:47:04;;;;;;;2.15;0.35;;;;;;;13.01;73.28;97960.47;5087590;28;20507;-69
2021/05/17 11:49:32;;;;;;;5.28;0.43;;;;;;;13.24;73.22;97949.53;5079770;28;20046;-69
2021/05/17 11:52:07;;;;;;;4.53;0.22;;;;;;;13.82;69.92;97945.75;5078562;28;20029;-69
2021/05/17 11:54:36;;;;;;;1.13;0.30;;;;;;;13.55;68.34;97942.00;5087693;28;20024;-69
2021/05/17 11:57:01;;;;;;;0.13;0.10;;;;;;;15.25;65.43;97940.78;5073343;28;20089;-70
2021/05/17 11:59:29;;;;;;;1.75;0.50;;;;;;;15.91;63.69;97944.22;5072439;28;20918;-69
2021/05/17 12:01:58;;;;;;;1.85;0.40;;;;;;;17.99;58.17;97932.97;5074847;28;20059;-69
2021/05/17 12:04:24;;;;;;;1.80;0.50;;;;;;;19.20;55.97;97935.78;5071592;28;20032;-69